sensor_id;sensor_type;location;lat;lon;timestamp;pressure;altitude;pressure_sealevel;temperature;humidity
37848;BME280;23688;33.130;-117.188;2022-10-28T00:01:10;99486.06;;;20.46;62.08
37848;BME280;23688;33.130;-117.188;2022-10-28T00:03:38;99484.25;;;20.22;63.68
37848;BME280;23688;33.130;-117.188;2022-10-28T00:06:08;99492.16;;;20.33;63.24
37848;BME280;23688;33.130;-117.188;2022-10-28T00:08:35;99489.50;;;20.23;63.04
37848;BME280;23688;33.130;-117.188;2022-10-28T00:11:11;99489.50;;;20.09;63.97
37848;BME280;23688;33.130;-117.188;2022-10-28T00:13:38;99485.09;;;20.02;64.33
37848;BME280;23688;33.130;-117.188;2022-10-28T00:16:09;99482.38;;;19.87;64.05
37848;BME280;23688;33.130;-117.188;2022-10-28T00:18:36;99491.16;;;19.78;65.87
37848;BME280;23688;33.130;-117.188;2022-10-28T00:21:15;99499.91;;;19.77;66.48
37848;BME280;23688;33.130;-117.188;2022-10-28T00:23:42;99495.38;;;19.55;67.32
37848;BME280;23688;33.130;-117.188;2022-10-28T00:26:18;99499.72;;;19.42;67.63
37848;BME280;23688;33.130;-117.188;2022-10-28T00:28:47;99506.75;;;19.48;67.88
37848;BME280;23688;33.130;-117.188;2022-10-28T00:31:15;99500.56;;;19.38;67.89
37848;BME280;23688;33.130;-117.188;2022-10-28T00:33:43;99507.53;;;19.31;68.85
37848;BME280;23688;33.130;-117.188;2022-10-28T00:38:39;99519.75;;;19.17;69.32
37848;BME280;23688;33.130;-117.188;2022-10-28T00:41:06;99529.22;;;18.95;70.62
37848;BME280;23688;33.130;-117.188;2022-10-28T00:46:06;99525.56;;;18.77;71.89
37848;BME280;23688;33.130;-117.188;2022-10-28T00:48:35;99524.44;;;18.55;72.78
37848;BME280;23688;33.130;-117.188;2022-10-28T00:51:07;99523.44;;;18.43;73.36
37848;BME280;23688;33.130;-117.188;2022-10-28T00:53:35;99525.84;;;18.20;74.76
37848;BME280;23688;33.130;-117.188;2022-10-28T00:56:02;99529.41;;;18.25;74.21
37848;BME280;23688;33.130;-117.188;2022-10-28T00:58:30;99543.44;;;18.27;74.38
37848;BME280;23688;33.130;-117.188;2022-10-28T01:01:00;99537.00;;;18.02;75.95
37848;BME280;23688;33.130;-117.188;2022-10-28T01:03:27;99542.19;;;17.95;76.55
37848;BME280;23688;33.130;-117.188;2022-10-28T01:05:53;99545.59;;;17.85;77.69
37848;BME280;23688;33.130;-117.188;2022-10-28T01:08:20;99549.22;;;17.96;76.76
37848;BME280;23688;33.130;-117.188;2022-10-28T01:30:56;99582.06;;;18.32;74.94
37848;BME280;23688;33.130;-117.188;2022-10-28T01:33:25;99571.63;;;18.43;73.93
37848;BME280;23688;33.130;-117.188;2022-10-28T01:41:46;99581.47;;;18.59;72.47
37848;BME280;23688;33.130;-117.188;2022-10-28T01:47:07;99589.31;;;18.58;72.09
37848;BME280;23688;33.130;-117.188;2022-10-28T01:50:00;99590.19;;;18.54;72.52
37848;BME280;23688;33.130;-117.188;2022-10-28T01:52:29;99588.38;;;18.50;72.48
37848;BME280;23688;33.130;-117.188;2022-10-28T01:55:05;99599.81;;;18.53;72.41
37848;BME280;23688;33.130;-117.188;2022-10-28T01:57:35;99603.28;;;18.49;72.39
37848;BME280;23688;33.130;-117.188;2022-10-28T02:00:07;99605.94;;;18.51;72.34
37848;BME280;23688;33.130;-117.188;2022-10-28T02:02:36;99604.13;;;18.47;72.45
37848;BME280;23688;33.130;-117.188;2022-10-28T02:07:50;99611.84;;;18.31;72.83
37848;BME280;23688;33.130;-117.188;2022-10-28T02:10:23;99615.25;;;18.26;73.11
37848;BME280;23688;33.130;-117.188;2022-10-28T02:12:54;99616.09;;;18.23;72.98
37848;BME280;23688;33.130;-117.188;2022-10-28T02:21:10;99634.16;;;17.97;73.99
37848;BME280;23688;33.130;-117.188;2022-10-28T02:23:48;99637.56;;;17.90;74.84
37848;BME280;23688;33.130;-117.188;2022-10-28T02:26:25;99631.31;;;17.80;74.75
37848;BME280;23688;33.130;-117.188;2022-10-28T02:29:07;99631.03;;;17.63;75.14
37848;BME280;23688;33.130;-117.188;2022-10-28T02:32:18;99631.78;;;17.56;76.24
37848;BME280;23688;33.130;-117.188;2022-10-28T02:34:48;99629.06;;;17.48;76.11
37848;BME280;23688;33.130;-117.188;2022-10-28T02:37:25;99643.94;;;17.49;76.24
37848;BME280;23688;33.130;-117.188;2022-10-28T02:39:56;99640.31;;;17.43;76.29
37848;BME280;23688;33.130;-117.188;2022-10-28T02:42:45;99643.75;;;17.37;76.90
37848;BME280;23688;33.130;-117.188;2022-10-28T02:45:21;99647.16;;;17.31;77.21
37848;BME280;23688;33.130;-117.188;2022-10-28T02:48:00;99645.28;;;17.24;77.91
37848;BME280;23688;33.130;-117.188;2022-10-28T02:50:32;99652.13;;;17.15;78.14
37848;BME280;23688;33.130;-117.188;2022-10-28T02:53:03;99658.13;;;17.09;78.56
37848;BME280;23688;33.130;-117.188;2022-10-28T02:55:38;99661.47;;;17.02;78.56
37848;BME280;23688;33.130;-117.188;2022-10-28T02:58:07;99650.75;;;16.88;78.77
37848;BME280;23688;33.130;-117.188;2022-10-28T03:00:36;99655.88;;;16.82;78.92
37848;BME280;23688;33.130;-117.188;2022-10-28T03:03:02;99662.91;;;16.83;78.84
37848;BME280;23688;33.130;-117.188;2022-10-28T03:05:29;99668.84;;;16.76;79.55
37848;BME280;23688;33.130;-117.188;2022-10-28T03:07:56;99660.81;;;16.66;80.14
37848;BME280;23688;33.130;-117.188;2022-10-28T03:10:23;99666.00;;;16.63;81.22
37848;BME280;23688;33.130;-117.188;2022-10-28T03:12:49;99676.28;;;16.54;81.06
37848;BME280;23688;33.130;-117.188;2022-10-28T03:15:15;99674.50;;;16.52;81.90
37848;BME280;23688;33.130;-117.188;2022-10-28T03:17:41;99660.31;;;16.42;82.41
37848;BME280;23688;33.130;-117.188;2022-10-28T03:20:08;99673.44;;;16.42;82.44
37848;BME280;23688;33.130;-117.188;2022-10-28T03:22:35;99673.38;;;16.40;82.94
37848;BME280;23688;33.130;-117.188;2022-10-28T03:25:01;99664.50;;;16.32;83.06
37848;BME280;23688;33.130;-117.188;2022-10-28T03:27:28;99651.28;;;16.27;83.31
37848;BME280;23688;33.130;-117.188;2022-10-28T03:29:55;99670.66;;;16.36;82.74
37848;BME280;23688;33.130;-117.188;2022-10-28T03:32:21;99678.44;;;16.31;81.53
37848;BME280;23688;33.130;-117.188;2022-10-28T03:34:47;99673.91;;;16.22;82.09
37848;BME280;23688;33.130;-117.188;2022-10-28T03:37:13;99683.59;;;16.28;83.29
37848;BME280;23688;33.130;-117.188;2022-10-28T03:39:40;99673.13;;;16.26;84.59
37848;BME280;23688;33.130;-117.188;2022-10-28T03:42:06;99693.22;;;16.27;84.39
37848;BME280;23688;33.130;-117.188;2022-10-28T03:44:32;99684.47;;;16.27;83.20
37848;BME280;23688;33.130;-117.188;2022-10-28T03:46:59;99663.09;;;16.07;82.23
37848;BME280;23688;33.130;-117.188;2022-10-28T03:49:25;99685.16;;;16.18;82.17
37848;BME280;23688;33.130;-117.188;2022-10-28T03:51:51;99670.03;;;16.05;81.91
37848;BME280;23688;33.130;-117.188;2022-10-28T03:54:18;99671.56;;;15.97;81.77
37848;BME280;23688;33.130;-117.188;2022-10-28T03:56:44;99679.53;;;16.01;82.17
37848;BME280;23688;33.130;-117.188;2022-10-28T03:59:10;99682.03;;;15.97;81.77
37848;BME280;23688;33.130;-117.188;2022-10-28T04:01:37;99680.94;;;15.87;82.18
37848;BME280;23688;33.130;-117.188;2022-10-28T04:04:03;99679.16;;;15.84;82.11
37848;BME280;23688;33.130;-117.188;2022-10-28T04:06:29;99673.63;;;15.72;82.60
37848;BME280;23688;33.130;-117.188;2022-10-28T04:08:56;99677.94;;;15.70;82.80
37848;BME280;23688;33.130;-117.188;2022-10-28T04:11:22;99682.41;;;15.74;82.96
37848;BME280;23688;33.130;-117.188;2022-10-28T04:13:48;99691.84;;;15.69;82.71
37848;BME280;23688;33.130;-117.188;2022-10-28T04:16:15;99703.94;;;15.64;82.81
37848;BME280;23688;33.130;-117.188;2022-10-28T04:18:41;99701.22;;;15.59;82.15
37848;BME280;23688;33.130;-117.188;2022-10-28T04:21:08;99696.63;;;15.51;82.88
37848;BME280;23688;33.130;-117.188;2022-10-28T04:23:34;99703.66;;;15.52;82.78
37848;BME280;23688;33.130;-117.188;2022-10-28T04:26:00;99695.50;;;15.41;82.83
37848;BME280;23688;33.130;-117.188;2022-10-28T04:28:27;99708.81;;;15.49;82.42
37848;BME280;23688;33.130;-117.188;2022-10-28T04:30:54;99696.44;;;15.41;82.86
37848;BME280;23688;33.130;-117.188;2022-10-28T04:33:20;99705.34;;;15.50;83.27
37848;BME280;23688;33.130;-117.188;2022-10-28T04:35:46;99712.25;;;15.46;83.13
37848;BME280;23688;33.130;-117.188;2022-10-28T04:38:13;99706.69;;;15.34;83.00
37848;BME280;23688;33.130;-117.188;2022-10-28T04:40:41;99714.44;;;15.31;82.93
37848;BME280;23688;33.130;-117.188;2022-10-28T04:43:07;99711.81;;;15.29;83.08
37848;BME280;23688;33.130;-117.188;2022-10-28T04:45:36;99712.63;;;15.27;83.23
37848;BME280;23688;33.130;-117.188;2022-10-28T04:48:05;99721.84;;;15.12;83.31
37848;BME280;23688;33.130;-117.188;2022-10-28T04:50:31;99717.28;;;15.05;83.76
37848;BME280;23688;33.130;-117.188;2022-10-28T04:52:59;99724.91;;;14.97;83.93
37848;BME280;23688;33.130;-117.188;2022-10-28T04:55:25;99715.22;;;14.93;83.72
37848;BME280;23688;33.130;-117.188;2022-10-28T04:57:56;99726.13;;;14.79;84.25
37848;BME280;23688;33.130;-117.188;2022-10-28T05:00:24;99743.78;;;14.87;83.71
37848;BME280;23688;33.130;-117.188;2022-10-28T05:02:52;99739.41;;;14.86;84.05
37848;BME280;23688;33.130;-117.188;2022-10-28T05:05:20;99727.75;;;14.75;84.02
37848;BME280;23688;33.130;-117.188;2022-10-28T05:07:46;99753.06;;;14.76;83.96
37848;BME280;23688;33.130;-117.188;2022-10-28T05:10:13;99737.72;;;14.57;84.43
37848;BME280;23688;33.130;-117.188;2022-10-28T05:12:43;99757.94;;;14.64;84.95
37848;BME280;23688;33.130;-117.188;2022-10-28T05:15:12;99757.81;;;14.59;85.18
37848;BME280;23688;33.130;-117.188;2022-10-28T05:17:44;99757.75;;;14.58;85.21
37848;BME280;23688;33.130;-117.188;2022-10-28T05:20:12;99758.38;;;14.50;85.30
37848;BME280;23688;33.130;-117.188;2022-10-28T05:22:45;99754.81;;;14.47;85.49
37848;BME280;23688;33.130;-117.188;2022-10-28T05:25:11;99752.66;;;14.33;85.54
37848;BME280;23688;33.130;-117.188;2022-10-28T05:27:39;99759.59;;;14.33;85.76
37848;BME280;23688;33.130;-117.188;2022-10-28T05:30:06;99761.28;;;14.31;85.78
37848;BME280;23688;33.130;-117.188;2022-10-28T05:32:33;99746.81;;;14.13;85.86
37848;BME280;23688;33.130;-117.188;2022-10-28T05:34:59;99774.91;;;14.21;85.88
37848;BME280;23688;33.130;-117.188;2022-10-28T05:37:27;99774.75;;;14.16;86.00
37848;BME280;23688;33.130;-117.188;2022-10-28T05:39:54;99773.06;;;14.18;86.13
37848;BME280;23688;33.130;-117.188;2022-10-28T05:42:20;99767.72;;;14.13;86.47
37848;BME280;23688;33.130;-117.188;2022-10-28T05:44:48;99768.56;;;14.12;87.78
37848;BME280;23688;33.130;-117.188;2022-10-28T05:47:14;99771.34;;;14.19;87.43
37848;BME280;23688;33.130;-117.188;2022-10-28T05:49:41;99771.56;;;14.25;87.34
37848;BME280;23688;33.130;-117.188;2022-10-28T05:52:07;99773.44;;;14.29;87.44
37848;BME280;23688;33.130;-117.188;2022-10-28T05:54:33;99781.91;;;14.22;86.91
37848;BME280;23688;33.130;-117.188;2022-10-28T05:57:00;99779.19;;;14.19;86.82
37848;BME280;23688;33.130;-117.188;2022-10-28T05:59:26;99762.47;;;14.13;86.59
37848;BME280;23688;33.130;-117.188;2022-10-28T06:01:52;99775.59;;;14.15;86.57
37848;BME280;23688;33.130;-117.188;2022-10-28T06:04:19;99771.25;;;14.16;86.60
37848;BME280;23688;33.130;-117.188;2022-10-28T06:06:46;99777.47;;;14.19;86.44
37848;BME280;23688;33.130;-117.188;2022-10-28T06:09:12;99779.31;;;14.23;85.78
37848;BME280;23688;33.130;-117.188;2022-10-28T06:11:40;99776.63;;;14.20;85.67
37848;BME280;23688;33.130;-117.188;2022-10-28T06:14:06;99774.81;;;14.18;86.38
37848;BME280;23688;33.130;-117.188;2022-10-28T06:16:36;99763.19;;;14.08;87.26
37848;BME280;23688;33.130;-117.188;2022-10-28T06:19:03;99776.34;;;14.11;86.93
37848;BME280;23688;33.130;-117.188;2022-10-28T06:21:29;99768.19;;;14.02;87.53
37848;BME280;23688;33.130;-117.188;2022-10-28T06:23:56;99772.69;;;14.06;87.87
37848;BME280;23688;33.130;-117.188;2022-10-28T06:26:24;99771.72;;;14.02;88.36
37848;BME280;23688;33.130;-117.188;2022-10-28T06:28:50;99771.66;;;14.01;88.43
37848;BME280;23688;33.130;-117.188;2022-10-28T06:31:17;99770.78;;;14.00;88.49
37848;BME280;23688;33.130;-117.188;2022-10-28T06:33:43;99775.78;;;13.94;88.60
37848;BME280;23688;33.130;-117.188;2022-10-28T06:36:09;99775.78;;;13.94;88.19
37848;BME280;23688;33.130;-117.188;2022-10-28T06:38:36;99778.31;;;13.91;88.23
37848;BME280;23688;33.130;-117.188;2022-10-28T06:41:02;99773.94;;;13.90;88.39
37848;BME280;23688;33.130;-117.188;2022-10-28T06:43:28;99782.81;;;13.95;88.96
37848;BME280;23688;33.130;-117.188;2022-10-28T06:45:55;99778.41;;;13.94;88.93
37848;BME280;23688;33.130;-117.188;2022-10-28T06:48:23;99781.81;;;13.91;89.04
37848;BME280;23688;33.130;-117.188;2022-10-28T06:50:54;99782.44;;;13.84;89.00
37848;BME280;23688;33.130;-117.188;2022-10-28T06:53:21;99775.41;;;13.82;88.94
37848;BME280;23688;33.130;-117.188;2022-10-28T06:55:55;99781.63;;;13.85;88.89
37848;BME280;23688;33.130;-117.188;2022-10-28T06:58:23;99785.03;;;13.84;88.70
37848;BME280;23688;33.130;-117.188;2022-10-28T07:00:50;99782.44;;;13.84;88.89
37848;BME280;23688;33.130;-117.188;2022-10-28T07:03:18;99784.22;;;13.85;88.32
37848;BME280;23688;33.130;-117.188;2022-10-28T07:05:46;99770.03;;;13.77;88.53
37848;BME280;23688;33.130;-117.188;2022-10-28T07:08:13;99782.53;;;13.87;89.28
37848;BME280;23688;33.130;-117.188;2022-10-28T07:10:41;99774.56;;;13.83;89.35
37848;BME280;23688;33.130;-117.188;2022-10-28T07:13:07;99782.44;;;13.84;89.33
37848;BME280;23688;33.130;-117.188;2022-10-28T07:15:34;99767.53;;;13.80;90.09
37848;BME280;23688;33.130;-117.188;2022-10-28T07:18:00;99775.38;;;13.80;90.09
37848;BME280;23688;33.130;-117.188;2022-10-28T07:20:27;99781.47;;;13.81;90.00
37848;BME280;23688;33.130;-117.188;2022-10-28T07:22:57;99778.69;;;13.76;90.34
37848;BME280;23688;33.130;-117.188;2022-10-28T07:25:25;99773.53;;;13.78;90.52
37848;BME280;23688;33.130;-117.188;2022-10-28T07:27:51;99772.63;;;13.77;90.93
37848;BME280;23688;33.130;-117.188;2022-10-28T07:30:18;99782.25;;;13.78;91.24
37848;BME280;23688;33.130;-117.188;2022-10-28T07:32:44;99768.81;;;13.66;91.38
37848;BME280;23688;33.130;-117.188;2022-10-28T07:35:10;99778.63;;;13.75;91.08
37848;BME280;23688;33.130;-117.188;2022-10-28T07:37:43;99792.56;;;13.75;91.15
37848;BME280;23688;33.130;-117.188;2022-10-28T07:40:10;99788.25;;;13.76;91.00
37848;BME280;23688;33.130;-117.188;2022-10-28T07:42:38;99800.53;;;13.78;91.10
37848;BME280;23688;33.130;-117.188;2022-10-28T07:45:05;99790.97;;;13.79;90.60
37848;BME280;23688;33.130;-117.188;2022-10-28T07:47:31;99798.69;;;13.76;90.10
37848;BME280;23688;33.130;-117.188;2022-10-28T07:49:58;99786.22;;;13.67;90.00
37848;BME280;23688;33.130;-117.188;2022-10-28T07:52:24;99792.38;;;13.69;89.81
37848;BME280;23688;33.130;-117.188;2022-10-28T07:54:51;99790.41;;;13.62;89.71
37848;BME280;23688;33.130;-117.188;2022-10-28T07:57:17;99795.69;;;13.63;89.97
37848;BME280;23688;33.130;-117.188;2022-10-28T07:59:43;99800.91;;;13.63;89.86
37848;BME280;23688;33.130;-117.188;2022-10-28T08:02:21;99793.06;;;13.63;90.07
37848;BME280;23688;33.130;-117.188;2022-10-28T08:04:47;99795.69;;;13.63;89.93
37848;BME280;23688;33.130;-117.188;2022-10-28T08:07:14;99793.78;;;13.59;89.82
37848;BME280;23688;33.130;-117.188;2022-10-28T08:09:42;99799.06;;;13.61;90.32
37848;BME280;23688;33.130;-117.188;2022-10-28T08:12:12;99807.72;;;13.60;90.19
37848;BME280;23688;33.130;-117.188;2022-10-28T08:14:39;99802.56;;;13.61;90.33
37848;BME280;23688;33.130;-117.188;2022-10-28T08:17:05;99807.69;;;13.58;90.36
37848;BME280;23688;33.130;-117.188;2022-10-28T08:19:34;99802.34;;;13.55;90.34
37848;BME280;23688;33.130;-117.188;2022-10-28T08:22:01;99813.66;;;13.56;90.45
37848;BME280;23688;33.130;-117.188;2022-10-28T08:24:27;99812.78;;;13.55;91.08
37848;BME280;23688;33.130;-117.188;2022-10-28T08:26:56;99804.84;;;13.52;91.39
37848;BME280;23688;33.130;-117.188;2022-10-28T08:29:22;99815.28;;;13.52;92.33
37848;BME280;23688;33.130;-117.188;2022-10-28T08:31:49;99801.72;;;13.37;92.41
37848;BME280;23688;33.130;-117.188;2022-10-28T08:34:15;99817.72;;;13.47;92.38
37848;BME280;23688;33.130;-117.188;2022-10-28T08:36:41;99792.88;;;13.33;92.38
37848;BME280;23688;33.130;-117.188;2022-10-28T08:39:08;99805.22;;;13.37;92.16
37848;BME280;23688;33.130;-117.188;2022-10-28T08:41:43;99809.75;;;13.43;91.58
37848;BME280;23688;33.130;-117.188;2022-10-28T08:50:19;99822.59;;;13.37;91.23
37848;BME280;23688;33.130;-117.188;2022-10-28T08:55:39;99811.97;;;13.32;91.13
37848;BME280;23688;33.130;-117.188;2022-10-28T08:58:18;99814.69;;;13.35;91.35
37848;BME280;23688;33.130;-117.188;2022-10-28T09:00:54;99800.59;;;13.30;91.50
37848;BME280;23688;33.130;-117.188;2022-10-28T09:03:31;99818.06;;;13.33;91.29
37848;BME280;23688;33.130;-117.188;2022-10-28T09:06:10;99816.31;;;13.32;91.79
37848;BME280;23688;33.130;-117.188;2022-10-28T09:08:40;99812.47;;;13.22;92.14
37848;BME280;23688;33.130;-117.188;2022-10-28T09:21:50;99832.97;;;13.13;90.93
37848;BME280;23688;33.130;-117.188;2022-10-28T09:24:20;99827.44;;;13.03;90.91
37848;BME280;23688;33.130;-117.188;2022-10-28T09:27:00;99839.75;;;13.07;90.84
37848;BME280;23688;33.130;-117.188;2022-10-28T09:35:16;99838.88;;;12.84;91.76
37848;BME280;23688;33.130;-117.188;2022-10-28T09:37:49;99837.03;;;12.82;91.71
37848;BME280;23688;33.130;-117.188;2022-10-28T09:45:30;99835.56;;;12.89;93.51
37848;BME280;23688;33.130;-117.188;2022-10-28T09:48:18;99836.56;;;12.92;93.60
37848;BME280;23688;33.130;-117.188;2022-10-28T09:50:48;99841.72;;;12.91;93.77
37848;BME280;23688;33.130;-117.188;2022-10-28T09:56:09;99834.84;;;12.93;93.76
37848;BME280;23688;33.130;-117.188;2022-10-28T09:58:37;99841.84;;;12.94;93.37
37848;BME280;23688;33.130;-117.188;2022-10-28T10:01:06;99833.06;;;12.92;92.94
37848;BME280;23688;33.130;-117.188;2022-10-28T10:03:32;99844.25;;;12.89;92.61
37848;BME280;23688;33.130;-117.188;2022-10-28T10:06:06;99833.72;;;12.86;91.81
37848;BME280;23688;33.130;-117.188;2022-10-28T10:08:36;99840.59;;;12.84;91.41
37848;BME280;23688;33.130;-117.188;2022-10-28T10:11:06;99846.69;;;12.84;91.37
37848;BME280;23688;33.130;-117.188;2022-10-28T10:13:40;99850.94;;;12.82;90.95
37848;BME280;23688;33.130;-117.188;2022-10-28T10:18:36;99844.81;;;12.80;90.98
37848;BME280;23688;33.130;-117.188;2022-10-28T10:21:03;99843.69;;;12.74;90.82
37848;BME280;23688;33.130;-117.188;2022-10-28T10:26:01;99846.81;;;12.65;91.57
37848;BME280;23688;33.130;-117.188;2022-10-28T10:28:28;99852.69;;;12.59;91.88
37848;BME280;23688;33.130;-117.188;2022-10-28T10:30:57;99849.03;;;12.54;92.06
37848;BME280;23688;33.130;-117.188;2022-10-28T10:33:25;99855.03;;;12.53;92.43
37848;BME280;23688;33.130;-117.188;2022-10-28T10:36:16;99850.75;;;12.54;92.85
37848;BME280;23688;33.130;-117.188;2022-10-28T10:38:54;99855.13;;;12.55;93.15
37848;BME280;23688;33.130;-117.188;2022-10-28T10:41:39;99850.75;;;12.54;93.41
37848;BME280;23688;33.130;-117.188;2022-10-28T10:44:30;99855.19;;;12.56;93.62
37848;BME280;23688;33.130;-117.188;2022-10-28T10:49:27;99864.06;;;12.61;94.04
37848;BME280;23688;33.130;-117.188;2022-10-28T10:52:02;99853.88;;;12.68;94.29
37848;BME280;23688;33.130;-117.188;2022-10-28T10:54:31;99853.22;;;12.73;94.27
37848;BME280;23688;33.130;-117.188;2022-10-28T10:57:16;99852.50;;;12.77;93.78
37848;BME280;23688;33.130;-117.188;2022-10-28T10:59:46;99858.66;;;12.79;94.02
37848;BME280;23688;33.130;-117.188;2022-10-28T11:02:34;99854.34;;;12.80;94.08
37848;BME280;23688;33.130;-117.188;2022-10-28T11:05:08;99848.19;;;12.78;94.02
37848;BME280;23688;33.130;-117.188;2022-10-28T11:07:44;99858.91;;;12.85;94.25
37848;BME280;23688;33.130;-117.188;2022-10-28T11:10:30;99857.13;;;12.84;94.58
37848;BME280;23688;33.130;-117.188;2022-10-28T11:13:04;99853.63;;;12.84;94.94
37848;BME280;23688;33.130;-117.188;2022-10-28T11:15:34;99864.63;;;12.99;94.86
37848;BME280;23688;33.130;-117.188;2022-10-28T11:18:15;99860.44;;;13.03;94.96
37848;BME280;23688;33.130;-117.188;2022-10-28T11:21:23;99862.94;;;13.00;95.33
37848;BME280;23688;33.130;-117.188;2022-10-28T11:26:21;99863.69;;;12.97;96.09
37848;BME280;23688;33.130;-117.188;2022-10-28T11:29:14;99869.31;;;13.08;96.67
37848;BME280;23688;33.130;-117.188;2022-10-28T11:34:53;99865.78;;;13.30;96.15
37848;BME280;23688;33.130;-117.188;2022-10-28T11:45:47;99874.50;;;13.55;95.06
37848;BME280;23688;33.130;-117.188;2022-10-28T11:54:22;99867.00;;;13.64;95.15
37848;BME280;23688;33.130;-117.188;2022-10-28T11:57:15;99881.34;;;13.77;94.93
37848;BME280;23688;33.130;-117.188;2022-10-28T12:10:34;99879.25;;;13.92;93.38
37848;BME280;23688;33.130;-117.188;2022-10-28T12:19:07;99881.38;;;14.02;92.48
37848;BME280;23688;33.130;-117.188;2022-10-28T12:23:48;99894.84;;;14.15;92.41
37848;BME280;23688;33.130;-117.188;2022-10-28T12:26:17;99896.41;;;14.09;92.45
37848;BME280;23688;33.130;-117.188;2022-10-28T12:29:00;99890.28;;;14.09;92.47
37848;BME280;23688;33.130;-117.188;2022-10-28T12:31:36;99889.06;;;13.99;92.36
37848;BME280;23688;33.130;-117.188;2022-10-28T12:34:10;99891.06;;;14.06;91.77
37848;BME280;23688;33.130;-117.188;2022-10-28T12:36:45;99896.50;;;14.12;91.23
37848;BME280;23688;33.130;-117.188;2022-10-28T12:42:19;99897.59;;;14.19;90.51
37848;BME280;23688;33.130;-117.188;2022-10-28T12:44:48;99883.63;;;14.19;90.07
37848;BME280;23688;33.130;-117.188;2022-10-28T12:47:41;99890.81;;;14.24;90.20
37848;BME280;23688;33.130;-117.188;2022-10-28T12:50:27;99881.31;;;14.28;90.04
37848;BME280;23688;33.130;-117.188;2022-10-28T12:53:29;99882.19;;;14.27;90.52
37848;BME280;23688;33.130;-117.188;2022-10-28T12:56:00;99886.56;;;14.28;91.16
37848;BME280;23688;33.130;-117.188;2022-10-28T13:01:15;99883.13;;;14.29;91.64
37848;BME280;23688;33.130;-117.188;2022-10-28T13:03:42;99892.03;;;14.35;92.39
37848;BME280;23688;33.130;-117.188;2022-10-28T13:21:09;99888.53;;;14.61;95.34
37848;BME280;23688;33.130;-117.188;2022-10-28T13:23:54;99892.09;;;14.64;95.06
37848;BME280;23688;33.130;-117.188;2022-10-28T13:26:28;99896.47;;;14.65;94.34
37848;BME280;23688;33.130;-117.188;2022-10-28T13:28:58;99892.94;;;14.63;93.54
37848;BME280;23688;33.130;-117.188;2022-10-28T13:34:02;99910.47;;;14.67;93.86
37848;BME280;23688;33.130;-117.188;2022-10-28T13:36:30;99913.09;;;14.67;93.93
37848;BME280;23688;33.130;-117.188;2022-10-28T13:39:04;99904.38;;;14.67;94.36
37848;BME280;23688;33.130;-117.188;2022-10-28T13:41:34;99924.72;;;14.77;94.98
37848;BME280;23688;33.130;-117.188;2022-10-28T13:49:25;99924.97;;;14.85;96.13
37848;BME280;23688;33.130;-117.188;2022-10-28T13:57:36;99948.75;;;14.92;97.30
37848;BME280;23688;33.130;-117.188;2022-10-28T14:00:52;99944.19;;;14.87;97.79
37848;BME280;23688;33.130;-117.188;2022-10-28T14:03:01;99949.47;;;14.88;97.96
37848;BME280;23688;33.130;-117.188;2022-10-28T14:08:20;99953.03;;;14.90;97.92
37848;BME280;23688;33.130;-117.188;2022-10-28T14:11:06;99959.06;;;14.88;97.87
37848;BME280;23688;33.130;-117.188;2022-10-28T14:13:50;99958.06;;;14.84;97.90
37848;BME280;23688;33.130;-117.188;2022-10-28T14:16:33;99966.63;;;14.80;98.07
37848;BME280;23688;33.130;-117.188;2022-10-28T14:24:40;99975.94;;;14.70;99.25
37848;BME280;23688;33.130;-117.188;2022-10-28T14:44:32;99984.41;;;14.63;99.96
37848;BME280;23688;33.130;-117.188;2022-10-28T14:46:45;99992.28;;;14.65;100.00
37848;BME280;23688;33.130;-117.188;2022-10-28T14:51:52;99996.69;;;14.66;100.00
37848;BME280;23688;33.130;-117.188;2022-10-28T14:54:53;99993.16;;;14.65;100.00
37848;BME280;23688;33.130;-117.188;2022-10-28T14:57:30;99990.63;;;14.67;100.00
37848;BME280;23688;33.130;-117.188;2022-10-28T15:00:00;100002.97;;;14.72;100.00
37848;BME280;23688;33.130;-117.188;2022-10-28T15:02:27;99986.19;;;14.64;100.00
37848;BME280;23688;33.130;-117.188;2022-10-28T15:05:02;99996.88;;;14.72;100.00
37848;BME280;23688;33.130;-117.188;2022-10-28T15:07:29;100000.28;;;14.69;100.00
37848;BME280;23688;33.130;-117.188;2022-10-28T15:09:58;100003.69;;;14.67;100.00
37848;BME280;23688;33.130;-117.188;2022-10-28T15:12:25;100029.81;;;14.67;100.00
37848;BME280;23688;33.130;-117.188;2022-10-28T15:14:55;100024.69;;;14.70;100.00
37848;BME280;23688;33.130;-117.188;2022-10-28T15:17:24;100022.75;;;14.64;100.00
37848;BME280;23688;33.130;-117.188;2022-10-28T15:19:56;100032.75;;;14.76;100.00
37848;BME280;23688;33.130;-117.188;2022-10-28T15:24:59;100037.38;;;14.85;100.00
37848;BME280;23688;33.130;-117.188;2022-10-28T15:27:31;100048.81;;;14.88;100.00
37848;BME280;23688;33.130;-117.188;2022-10-28T15:29:58;100054.16;;;14.91;100.00
37848;BME280;23688;33.130;-117.188;2022-10-28T15:34:52;100065.16;;;15.08;100.00
37848;BME280;23688;33.130;-117.188;2022-10-28T15:37:27;100069.69;;;15.14;100.00
37848;BME280;23688;33.130;-117.188;2022-10-28T15:40:19;100078.84;;;15.27;100.00
37848;BME280;23688;33.130;-117.188;2022-10-28T15:43:05;100084.47;;;15.39;100.00
37848;BME280;23688;33.130;-117.188;2022-10-28T15:45:35;100094.31;;;15.48;100.00
37848;BME280;23688;33.130;-117.188;2022-10-28T15:48:10;100088.25;;;15.49;100.00
37848;BME280;23688;33.130;-117.188;2022-10-28T15:50:37;100089.66;;;15.66;100.00
37848;BME280;23688;33.130;-117.188;2022-10-28T15:55:37;100084.44;;;15.96;100.00
37848;BME280;23688;33.130;-117.188;2022-10-28T16:00:51;100088.78;;;16.26;97.95